M I D A S
Marine Information and Data Acquisition System
Tripno 1899 of the Zeeleeuw from 2010-06-11 06:57:26 to 2010-06-11 10:32:55
Back to CruiseResearch ActivitiesStationsMapUnderway DataData graphs

EquipmentUnitsComment
TimeDGPSUTC
LatitudeDGPSDM.mWGS84
LongitudeDGPSDM.mWGS84
HeadingGyrodeg 
SOGDGPSknotsSpeed over ground
COGDGPSdegCourse over ground
DepthEcho soundermeters200 kHz
Missing or incorrect values are displayed as -999
Navigation data collected by the RV Zeeleeuw from 2010-06-11 06:54:28 to 2010-06-11 11:08:51
                                                                                    Next 1000 lines
Time Latitude Longitude Heading SOG COG Depth
2010-06-11 06:54:38 51°13.663 2°55.956 111 1.3 297 5.5
2010-06-11 06:54:43 51°13.664 2°55.952 111.1 1.9 294 5.5
2010-06-11 06:54:48 51°13.665 2°55.947 111.1 2.4 295 5.6
2010-06-11 06:54:53 51°13.667 2°55.941 110.8 2.8 294 -999
2010-06-11 06:54:59 51°13.669 2°55.933 110.4 3.2 295 -999
2010-06-11 06:55:05 51°13.671 2°55.925 109.8 3.5 293 -999
2010-06-11 06:55:11 51°13.674 2°55.915 109.1 3.9 293 -999
2010-06-11 06:55:16 51°13.676 2°55.906 108 4.1 291 -999
2010-06-11 06:55:22 51°13.678 2°55.895 106.1 4.4 288 -999
2010-06-11 06:55:26 51°13.68 2°55.888 104 4.6 286 -999
2010-06-11 06:55:31 51°13.681 2°55.877 102 4.8 284 -999
2010-06-11 06:55:37 51°13.683 2°55.865 100.2 4.8 283 -999
2010-06-11 06:55:42 51°13.684 2°55.855 98.6 4.6 280 -999
2010-06-11 06:55:46 51°13.685 2°55.848 96.7 4.5 279 -999
2010-06-11 06:55:51 51°13.686 2°55.838 95.7 4.3 278 -999
2010-06-11 06:55:56 51°13.686 2°55.829 94.1 4.1 277 -999
2010-06-11 06:56:02 51°13.687 2°55.819 92.6 3.9 277 -999
2010-06-11 06:56:06 51°13.688 2°55.812 91.3 3.8 275 9.8
2010-06-11 06:56:11 51°13.688 2°55.804 90 3.6 274 9.7
2010-06-11 06:56:15 51°13.688 2°55.798 88.5 3.5 273 11.1
2010-06-11 06:56:21 51°13.688 2°55.789 86.5 3.4 271 11.3
2010-06-11 06:56:26 51°13.688 2°55.782 84.5 3.2 270 11.6
2010-06-11 06:56:30 51°13.688 2°55.777 82.5 3 269 12.1
2010-06-11 06:56:35 51°13.688 2°55.771 80.6 2.6 267 12.3
2010-06-11 06:56:40 51°13.688 2°55.767 78 2.2 267 12.3
2010-06-11 06:56:45 51°13.687 2°55.763 75 1.9 266 12
2010-06-11 06:56:50 51°13.687 2°55.759 72 1.5 268 11.5
2010-06-11 06:56:54 51°13.687 2°55.757 69.3 1.3 269 11.1
2010-06-11 06:56:59 51°13.687 2°55.755 66.4 1 269 10.9
2010-06-11 06:57:04 51°13.687 2°55.753 63 0.8 270 10.8
2010-06-11 06:57:09 51°13.687 2°55.752 59.2 0.7 272 10.9
2010-06-11 06:57:14 51°13.687 2°55.751 55.8 0.5 275 10.9
2010-06-11 06:57:19 51°13.688 2°55.749 52.7 0.5 284 11.1
2010-06-11 06:57:23 51°13.688 2°55.749 50 0.4 288 11.3
2010-06-11 06:57:29 51°13.688 2°55.748 47.3 0.4 302 11.3
2010-06-11 06:57:33 51°13.688 2°55.748 44.9 0.3 318 11.4
2010-06-11 06:57:38 51°13.689 2°55.748 42.4 0.4 343 11.4
2010-06-11 06:57:43 51°13.69 2°55.748 39.7 0.4 354 11.6
2010-06-11 06:57:47 51°13.69 2°55.748 36.8 0.6 11 11.8
2010-06-11 06:57:53 51°13.692 2°55.748 33.3 0.8 9 11.8
2010-06-11 06:57:58 51°13.693 2°55.748 29.3 0.9 11 12
2010-06-11 06:58:03 51°13.695 2°55.748 25.3 1.1 8 12.4
2010-06-11 06:58:08 51°13.696 2°55.748 20.8 1.2 5 12.3
2010-06-11 06:58:13 51°13.698 2°55.748 16.3 1.4 1 12.4
2010-06-11 06:58:18 51°13.701 2°55.748 11.1 1.9 358 12
2010-06-11 06:58:23 51°13.704 2°55.747 4.9 2.2 352 12.4
2010-06-11 06:58:28 51°13.707 2°55.746 358 2.4 347 12.5
2010-06-11 06:58:33 51°13.71 2°55.744 352.5 2.6 341 12.7
2010-06-11 06:58:38 51°13.714 2°55.741 344 2.9 335 12.7
2010-06-11 06:58:43 51°13.718 2°55.737 337.3 3.1 331 12.5
2010-06-11 06:58:48 51°13.722 2°55.734 332.7 3.2 330 12.3
2010-06-11 06:58:53 51°13.726 2°55.73 330.5 3.5 328 12.1
2010-06-11 06:58:58 51°13.731 2°55.725 328.9 3.9 327 11.9
2010-06-11 06:59:03 51°13.736 2°55.719 328 4.4 326 11.6
2010-06-11 06:59:08 51°13.741 2°55.713 327.8 4.9 326 11.6
2010-06-11 06:59:13 51°13.748 2°55.707 327.5 5.3 325 11.1
2010-06-11 06:59:18 51°13.754 2°55.699 327.4 5.7 325 10.9
2010-06-11 06:59:23 51°13.761 2°55.691 327.2 6.1 325 10.9
2010-06-11 06:59:28 51°13.768 2°55.683 326.9 6.4 325 11
2010-06-11 06:59:33 51°13.776 2°55.675 326.9 6.7 326 11
2010-06-11 06:59:38 51°13.784 2°55.666 327.9 6.9 327 11
2010-06-11 06:59:43 51°13.793 2°55.658 328.9 7.1 329 10.9
2010-06-11 06:59:48 51°13.801 2°55.65 329.9 7.3 328 10.9
2010-06-11 06:59:53 51°13.81 2°55.642 330.3 7.5 330 10.8
2010-06-11 06:59:58 51°13.82 2°55.634 331.8 7.6 331 10.9
2010-06-11 07:00:03 51°13.829 2°55.626 332.6 7.8 332 11
2010-06-11 07:00:08 51°13.839 2°55.618 334 7.9 334 10.8
2010-06-11 07:00:13 51°13.849 2°55.611 335.1 8 335 10.2
2010-06-11 07:00:18 51°13.859 2°55.603 335.6 8.1 334 10.1
2010-06-11 07:00:23 51°13.87 2°55.595 336.2 8.1 335 9.9
2010-06-11 07:00:28 51°13.88 2°55.587 336.4 8.3 334 9.9
2010-06-11 07:00:33 51°13.89 2°55.58 336.6 8.3 335 10.1
2010-06-11 07:00:38 51°13.901 2°55.572 336.9 8.4 335 10.2
2010-06-11 07:00:43 51°13.912 2°55.564 336.7 8.5 335 10.5
2010-06-11 07:00:48 51°13.922 2°55.557 336.6 8.5 335 10.5
2010-06-11 07:00:52 51°13.931 2°55.551 337.2 8.5 336 10.5
2010-06-11 07:00:58 51°13.944 2°55.541 337.3 8.6 335 10.5
2010-06-11 07:01:03 51°13.955 2°55.533 336.9 8.6 335 10.5
2010-06-11 07:01:08 51°13.966 2°55.525 336.9 8.6 336 10.5
2010-06-11 07:01:12 51°13.974 2°55.519 337.4 8.6 336 10.4
2010-06-11 07:01:18 51°13.988 2°55.51 337.5 8.6 336 10.5
2010-06-11 07:01:23 51°13.998 2°55.502 337.4 8.6 336 10.5
2010-06-11 07:01:28 51°14.009 2°55.495 337.2 8.6 336 10.4
2010-06-11 07:01:33 51°14.02 2°55.487 337.2 8.7 336 10.3
2010-06-11 07:01:38 51°14.032 2°55.479 337.4 8.8 335 10.3
2010-06-11 07:01:43 51°14.043 2°55.47 337.1 8.9 335 10.3
2010-06-11 07:01:48 51°14.054 2°55.462 337.2 8.9 335 10.2
2010-06-11 07:01:53 51°14.066 2°55.454 337.4 9 336 9.6
2010-06-11 07:01:58 51°14.077 2°55.446 337.5 9.1 335 9.7
2010-06-11 07:02:03 51°14.089 2°55.437 337.5 9.1 336 9.7
2010-06-11 07:02:08 51°14.1 2°55.428 337 9.2 334 10.4
2010-06-11 07:02:13 51°14.112 2°55.42 336.7 9.2 335 10.3
2010-06-11 07:02:18 51°14.123 2°55.411 336.9 9.3 335 10.3
2010-06-11 07:02:23 51°14.135 2°55.403 337.6 9.3 336 10.4
2010-06-11 07:02:28 51°14.147 2°55.394 337.3 9.3 334 10.3
2010-06-11 07:02:33 51°14.158 2°55.385 336.5 9.3 333 10.4
2010-06-11 07:02:38 51°14.169 2°55.375 334.9 9.3 332 10.4
2010-06-11 07:02:43 51°14.181 2°55.365 333.9 9.3 332 10.4
2010-06-11 07:02:48 51°14.192 2°55.355 333.5 9.3 331 10.3
2010-06-11 07:02:52 51°14.201 2°55.347 334 9.3 333 10.4
2010-06-11 07:02:58 51°14.215 2°55.335 334.6 9.4 331 10.4
2010-06-11 07:03:03 51°14.226 2°55.326 333.7 9.4 331 10.3
2010-06-11 07:03:08 51°14.238 2°55.316 333.2 9.4 331 10.4
2010-06-11 07:03:13 51°14.249 2°55.305 332.5 9.4 330 10.2
2010-06-11 07:03:18 51°14.26 2°55.295 332.1 9.3 330 10.4
2010-06-11 07:03:23 51°14.271 2°55.285 332.2 9.3 330 -999
2010-06-11 07:03:28 51°14.282 2°55.274 331.6 9.3 330 10.3
2010-06-11 07:03:33 51°14.293 2°55.263 330.8 9.4 329 10.2
2010-06-11 07:03:38 51°14.304 2°55.253 330.8 9.4 330 10.2
2010-06-11 07:03:43 51°14.316 2°55.242 331 9.4 329 10.4
2010-06-11 07:03:48 51°14.327 2°55.231 330.8 9.4 329 10
2010-06-11 07:03:53 51°14.338 2°55.221 330.7 9.3 329 10.3
2010-06-11 07:03:58 51°14.349 2°55.21 330.7 9.3 329 9.4
2010-06-11 07:04:03 51°14.36 2°55.2 330.2 9.2 328 9.8
2010-06-11 07:04:08 51°14.37 2°55.189 329.3 9.3 327 9.9
2010-06-11 07:04:13 51°14.382 2°55.178 329.1 9.4 328 9.9
2010-06-11 07:04:18 51°14.393 2°55.167 330.1 9.6 329 10.4
2010-06-11 07:04:23 51°14.405 2°55.156 330.6 9.8 329 10.3
2010-06-11 07:04:28 51°14.417 2°55.144 330.3 10 328 10.3
2010-06-11 07:04:33 51°14.429 2°55.132 329.8 10.1 327 10.4
2010-06-11 07:04:38 51°14.441 2°55.12 329.6 10.4 328 10.6
2010-06-11 07:04:43 51°14.453 2°55.108 329.6 10.4 328 10.5
2010-06-11 07:04:48 51°14.466 2°55.096 330.2 10.5 329 10.2
2010-06-11 07:04:53 51°14.478 2°55.085 331.4 10.6 329 10.3
2010-06-11 07:04:58 51°14.491 2°55.072 331.7 10.8 329 10.3
2010-06-11 07:05:03 51°14.504 2°55.059 330.1 11 327 10.7
2010-06-11 07:05:08 51°14.517 2°55.045 328.5 11.1 326 10.6
2010-06-11 07:05:12 51°14.527 2°55.033 328.1 11.4 324 10.5
2010-06-11 07:05:18 51°14.542 2°55.015 327.4 11.5 322 11
2010-06-11 07:05:23 51°14.554 2°54.997 325 11.6 318 11
2010-06-11 07:05:28 51°14.566 2°54.978 321.7 11.8 314 11.3
2010-06-11 07:05:32 51°14.574 2°54.962 318 12 309 11.6
2010-06-11 07:05:37 51°14.584 2°54.941 314.7 12.1 307 11.1
2010-06-11 07:05:43 51°14.596 2°54.915 312.2 12 305 10.7
2010-06-11 07:05:47 51°14.603 2°54.897 309.9 12.2 302 11.1
2010-06-11 07:05:52 51°14.612 2°54.873 307.7 12.3 300 11
2010-06-11 07:05:58 51°14.621 2°54.844 305.5 12.4 298 10.9
2010-06-11 07:06:03 51°14.629 2°54.819 303.7 12.4 296 10.8
2010-06-11 07:06:07 51°14.635 2°54.799 301.9 12.5 294 11.7
2010-06-11 07:06:12 51°14.641 2°54.773 299.2 12.6 290 11.7
2010-06-11 07:06:18 51°14.647 2°54.741 295.7 12.5 286 11.1
2010-06-11 07:06:22 51°14.65 2°54.72 291.4 12.6 282 11.2
2010-06-11 07:06:28 51°14.653 2°54.686 286.9 12.6 278 11
2010-06-11 07:06:32 51°14.654 2°54.664 282.7 12.7 274 11.3
2010-06-11 07:06:38 51°14.653 2°54.63 278.4 12.8 269 10.9
2010-06-11 07:06:42 51°14.652 2°54.608 273 12.8 263 9.2
2010-06-11 07:06:47 51°14.648 2°54.58 266.5 12.9 256 9.5
2010-06-11 07:06:53 51°14.64 2°54.547 259.9 12.9 250 9.5
2010-06-11 07:06:58 51°14.633 2°54.521 253.6 13.2 247 9.4
2010-06-11 07:07:02 51°14.626 2°54.5 248.6 13.3 241 9.5
2010-06-11 07:07:07 51°14.616 2°54.475 243.6 13.4 238 9.5
2010-06-11 07:07:12 51°14.605 2°54.45 238.6 13.5 233 9.2
2010-06-11 07:07:18 51°14.591 2°54.423 233.6 13.7 230 9.3
2010-06-11 07:07:23 51°14.577 2°54.402 229.4 13.6 225 9.2
2010-06-11 07:07:27 51°14.567 2°54.383 227.1 13.8 231 9.2
2010-06-11 07:07:32 51°14.554 2°54.36 228.7 13.9 227 9.2
2010-06-11 07:07:38 51°14.539 2°54.332 228.7 13.9 229 9
2010-06-11 07:07:43 51°14.526 2°54.31 228.5 14 229 9
2010-06-11 07:07:47 51°14.516 2°54.291 229.3 14 229 9.2
2010-06-11 07:07:52 51°14.503 2°54.267 230.1 13.8 229 9.1
2010-06-11 07:07:58 51°14.488 2°54.24 229.2 14 230 9
2010-06-11 07:08:03 51°14.475 2°54.216 230.1 14.1 229 9
2010-06-11 07:08:07 51°14.465 2°54.197 230.2 14 232 8.9
2010-06-11 07:08:13 51°14.45 2°54.169 230.9 14 227 8.9
2010-06-11 07:08:18 51°14.438 2°54.143 229.5 14.1 234 8.8
2010-06-11 07:08:22 51°14.429 2°54.123 232.9 14 230 8.9
2010-06-11 07:08:27 51°14.416 2°54.1 231.8 14.1 233 8.7
2010-06-11 07:08:33 51°14.402 2°54.069 232.7 14.1 234 8.7
2010-06-11 07:08:38 51°14.39 2°54.045 234.5 14.1 232 8.6
2010-06-11 07:08:42 51°14.381 2°54.024 233.7 14.1 236 8.8
2010-06-11 07:08:47 51°14.37 2°53.999 235 14.2 232 8.4
2010-06-11 07:08:53 51°14.356 2°53.968 234.2 14.2 237 8.5
2010-06-11 07:08:58 51°14.344 2°53.944 236.2 14.1 232 8.4
2010-06-11 07:09:02 51°14.335 2°53.923 234.5 14.3 236 8.6
2010-06-11 07:09:07 51°14.324 2°53.898 235.7 14.1 234 8.6
2010-06-11 07:09:13 51°14.31 2°53.868 235.4 14.2 233 8.7
2010-06-11 07:09:18 51°14.3 2°53.841 235.6 14.2 238 8.5
2010-06-11 07:09:22 51°14.29 2°53.822 236 14.3 230 8.7
2010-06-11 07:09:27 51°14.279 2°53.795 235.2 14.3 239 8.7
2010-06-11 07:09:32 51°14.267 2°53.771 236.3 14.2 229 8.7
2010-06-11 07:09:38 51°14.254 2°53.739 234.7 14.4 238 8.5
2010-06-11 07:09:42 51°14.244 2°53.72 236 14.4 232 8.7
2010-06-11 07:09:47 51°14.233 2°53.693 235.7 14.3 236 8.6
2010-06-11 07:09:52 51°14.22 2°53.668 235.5 14.3 233 8.6
2010-06-11 07:09:58 51°14.207 2°53.637 235.5 14.3 235 8.7
2010-06-11 07:10:02 51°14.197 2°53.617 236.1 14.3 233 8.8
2010-06-11 07:10:07 51°14.186 2°53.591 235.3 14.4 235 8.7
2010-06-11 07:10:12 51°14.175 2°53.565 236.1 14.4 236 8.7
2010-06-11 07:10:18 51°14.16 2°53.534 236 14.4 233 8.7
2010-06-11 07:10:23 51°14.149 2°53.508 235.5 14.4 237 8.9
2010-06-11 07:10:27 51°14.14 2°53.488 236.3 14.3 233 8.7
2010-06-11 07:10:32 51°14.128 2°53.462 235.2 14.4 237 8.9
2010-06-11 07:10:38 51°14.114 2°53.431 236.5 14.3 233 8.9
2010-06-11 07:10:42 51°14.104 2°53.411 234.6 14.6 234 9.1
2010-06-11 07:10:47 51°14.094 2°53.383 236.6 14.3 237 8.9
2010-06-11 07:10:52 51°14.081 2°53.359 235.5 14.4 231 8.8
2010-06-11 07:10:58 51°14.069 2°53.326 235.6 14.6 239 9
2010-06-11 07:11:03 51°14.057 2°53.301 237.3 14.3 233 9
2010-06-11 07:11:07 51°14.047 2°53.28 235.3 14.5 234 9.2
2010-06-11 07:11:13 51°14.034 2°53.248 236.7 14.4 237 9
2010-06-11 07:11:18 51°14.022 2°53.223 235.2 14.4 231 9
2010-06-11 07:11:22 51°14.013 2°53.202 235 14.6 236 9.4
2010-06-11 07:11:27 51°14.001 2°53.175 237 14.3 234 9.2
2010-06-11 07:11:32 51°13.989 2°53.15 235 14.4 234 9
2010-06-11 07:11:38 51°13.976 2°53.118 235.6 14.4 237 9.1
2010-06-11 07:11:42 51°13.965 2°53.099 236 14.5 231 9.3
2010-06-11 07:11:47 51°13.955 2°53.071 236 14.5 240 9.2
2010-06-11 07:11:52 51°13.943 2°53.047 236.5 14.3 231 9.3
2010-06-11 07:11:58 51°13.929 2°53.015 235.1 14.5 236 9.3
2010-06-11 07:12:02 51°13.92 2°52.994 235.8 14.5 235 9.4
2010-06-11 07:12:07 51°13.908 2°52.968 236.2 14.2 233 9.2
2010-06-11 07:12:12 51°13.896 2°52.943 234.5 14.4 236 9.5
2010-06-11 07:12:18 51°13.883 2°52.912 236.1 14.4 232 9.4
2010-06-11 07:12:23 51°13.871 2°52.886 234.7 14.5 235 9.6
2010-06-11 07:12:27 51°13.862 2°52.865 235.7 14.4 233 9.5
2010-06-11 07:12:32 51°13.85 2°52.84 234.8 14.5 235 9.4
2010-06-11 07:12:38 51°13.836 2°52.808 235.3 14.4 235 9.5
2010-06-11 07:12:43 51°13.824 2°52.783 235.3 14.4 232 9.4
2010-06-11 07:12:47 51°13.815 2°52.762 234.3 14.5 236 9.5
2010-06-11 07:12:52 51°13.803 2°52.736 235.9 14.4 231 9.5
2010-06-11 07:12:58 51°13.789 2°52.705 234.4 14.5 237 9.4
2010-06-11 07:13:02 51°13.779 2°52.685 235.2 14.5 231 9.5
2010-06-11 07:13:08 51°13.766 2°52.653 234.8 14.4 238 9.6
2010-06-11 07:13:13 51°13.754 2°52.629 235.7 14.3 231 9.3
2010-06-11 07:13:18 51°13.742 2°52.602 233.9 14.5 236 9.6
2010-06-11 07:13:22 51°13.734 2°52.581 237.4 14.2 234 9.6
2010-06-11 07:13:27 51°13.721 2°52.557 234.5 14.4 233 9.5
2010-06-11 07:13:33 51°13.707 2°52.525 235.2 14.5 234 9.6
2010-06-11 07:13:38 51°13.696 2°52.499 236 14.4 235 9.6
2010-06-11 07:13:42 51°13.687 2°52.478 236 14.4 234 9.6
2010-06-11 07:13:47 51°13.675 2°52.453 235.2 14.5 236 9.6
2010-06-11 07:13:53 51°13.661 2°52.422 236.1 14.4 232 9.7
2010-06-11 07:13:58 51°13.649 2°52.395 235.2 14.4 236 9.7
2010-06-11 07:14:02 51°13.64 2°52.375 235.6 14.4 231 9.8
2010-06-11 07:14:08 51°13.626 2°52.344 235.1 14.5 236 9.6
2010-06-11 07:14:12 51°13.616 2°52.324 235.4 14.4 232 9.8
2010-06-11 07:14:18 51°13.602 2°52.293 234.5 14.5 235 9.5
2010-06-11 07:14:22 51°13.593 2°52.272 235.5 14.4 234 9.7
2010-06-11 07:14:28 51°13.578 2°52.242 234.5 14.4 232 9.7
2010-06-11 07:14:32 51°13.569 2°52.22 234.5 14.4 237 9.6
2010-06-11 07:14:37 51°13.557 2°52.195 235.3 14.4 232 9.6
2010-06-11 07:14:43 51°13.543 2°52.163 234.6 14.6 235 9.7
2010-06-11 07:14:48 51°13.532 2°52.138 235.7 14.4 234 9.6
2010-06-11 07:14:52 51°13.522 2°52.118 234.9 14.4 234 9.6
2010-06-11 07:14:58 51°13.508 2°52.086 235 14.5 235 9.7
2010-06-11 07:15:03 51°13.497 2°52.06 235.7 14.4 235 9.4
2010-06-11 07:15:08 51°13.485 2°52.035 234.9 14.5 234 9.6
2010-06-11 07:15:12 51°13.476 2°52.014 236 14 235 9.6
2010-06-11 07:15:18 51°13.463 2°51.985 235.4 13.6 234 9.4
2010-06-11 07:15:22 51°13.453 2°51.966 234.7 13.6 234 9.5
2010-06-11 07:15:28 51°13.44 2°51.938 234.9 13.3 233 9.6
2010-06-11 07:15:32 51°13.432 2°51.92 234.7 12.9 234 9.8
2010-06-11 07:15:38 51°13.419 2°51.893 234.4 12.6 233 9.8
2010-06-11 07:15:42 51°13.411 2°51.876 234.7 12.2 234 9.8
2010-06-11 07:15:47 51°13.401 2°51.854 235.2 11.9 233 9.9
2010-06-11 07:15:52 51°13.391 2°51.833 235.2 11.6 234 9.8
2010-06-11 07:15:58 51°13.38 2°51.809 235.3 11.4 234 9.8
2010-06-11 07:16:03 51°13.371 2°51.789 235.2 11.1 235 9.6
2010-06-11 07:16:07 51°13.364 2°51.773 235.1 10.9 234 9.8
2010-06-11 07:16:12 51°13.355 2°51.754 235.1 10.8 233 9.8
2010-06-11 07:16:18 51°13.345 2°51.731 235.2 10.6 235 9.7
2010-06-11 07:16:22 51°13.338 2°51.716 235 10.5 232 9.7
2010-06-11 07:16:28 51°13.327 2°51.694 234.6 10.5 236 9.7
2010-06-11 07:16:32 51°13.32 2°51.68 235.8 10.3 231 9.8
2010-06-11 07:16:38 51°13.31 2°51.658 235 10.3 236 9.8
2010-06-11 07:16:42 51°13.304 2°51.644 235.2 10.1 232 9.9
2010-06-11 07:16:48 51°13.294 2°51.621 235.2 10.2 235 9.6
2010-06-11 07:16:52 51°13.287 2°51.607 235.2 10.1 234 9.8
2010-06-11 07:16:57 51°13.279 2°51.589 235.8 10.1 232 10.1
2010-06-11 07:17:03 51°13.27 2°51.567 235.6 10 236 9.6
2010-06-11 07:17:08 51°13.261 2°51.55 235.2 10 233 9.8
2010-06-11 07:17:12 51°13.255 2°51.536 235.6 9.9 235 9.9
2010-06-11 07:17:18 51°13.245 2°51.515 235.8 9.9 232 10.1
2010-06-11 07:17:22 51°13.239 2°51.5 235.2 9.5 235 9.7
2010-06-11 07:17:28 51°13.23 2°51.482 234.5 9.1 232 9.9
2010-06-11 07:17:32 51°13.224 2°51.469 234.5 8.7 234 9.5
2010-06-11 07:17:38 51°13.216 2°51.452 233.8 8.3 232 9.9
2010-06-11 07:17:42 51°13.211 2°51.441 234.5 7.7 235 10
2010-06-11 07:17:47 51°13.205 2°51.428 235.8 7.3 235 10
2010-06-11 07:17:52 51°13.201 2°51.414 238.9 6.9 240 9.7
2010-06-11 07:17:58 51°13.195 2°51.399 241.4 6.7 242 9.7
2010-06-11 07:18:02 51°13.192 2°51.389 245.8 6.2 245 9.7
2010-06-11 07:18:07 51°13.189 2°51.377 249.8 6 247 9.9
2010-06-11 07:18:13 51°13.185 2°51.363 253.4 5.7 251 9.9
2010-06-11 07:18:18 51°13.183 2°51.351 257 5.5 254 9.7
2010-06-11 07:18:23 51°13.182 2°51.34 261.1 5.2 258 9.5
2010-06-11 07:18:27 51°13.181 2°51.331 267.1 5 262 9.7
2010-06-11 07:18:32 51°13.181 2°51.32 271.2 4.8 266 9.7
2010-06-11 07:18:38 51°13.181 2°51.307 276.6 4.8 270 9.9
2010-06-11 07:18:43 51°13.182 2°51.297 282.3 4.5 275 9.8
2010-06-11 07:18:47 51°13.182 2°51.289 288.1 4.3 278 9.9
2010-06-11 07:18:52 51°13.184 2°51.28 293.4 4.2 282 10.1
2010-06-11 07:18:57 51°13.185 2°51.272 299.2 4 287 10
2010-06-11 07:19:03 51°13.188 2°51.262 304.6 3.9 291 10.2
2010-06-11 07:19:08 51°13.19 2°51.254 311.4 3.8 297 10.2
2010-06-11 07:19:12 51°13.193 2°51.249 315.9 3.8 302 10.4
2010-06-11 07:19:17 51°13.196 2°51.242 323.1 3.7 309 10.1
2010-06-11 07:19:23 51°13.2 2°51.235 328.2 3.8 314 10
2010-06-11 07:19:28 51°13.204 2°51.23 336.3 3.8 323 10.1
2010-06-11 07:19:32 51°13.208 2°51.227 342.2 3.8 329 10.1
2010-06-11 07:19:37 51°13.212 2°51.224 349.3 3.8 338 10.5
2010-06-11 07:19:42 51°13.217 2°51.221 356.6 3.7 346 10.5
2010-06-11 07:19:48 51°13.224 2°51.22 3.9 3.6 355 10.2
2010-06-11 07:19:52 51°13.228 2°51.22 11.4 3.6 4 10.5
2010-06-11 07:19:58 51°13.234 2°51.222 18.4 3.6 11 10.2
2010-06-11 07:20:03 51°13.238 2°51.224 25.5 3.5 20 10
2010-06-11 07:20:07 51°13.242 2°51.227 32.7 3.5 30 10.3
2010-06-11 07:20:12 51°13.246 2°51.232 39.6 3.5 36 10.3
2010-06-11 07:20:18 51°13.25 2°51.239 46.4 3.7 45 10.4
2010-06-11 07:20:23 51°13.254 2°51.245 50.8 3.9 46 10.3
2010-06-11 07:20:27 51°13.257 2°51.251 52.9 4.5 50 10.4
2010-06-11 07:20:32 51°13.262 2°51.259 53.5 5 48 10.3
2010-06-11 07:20:38 51°13.268 2°51.27 53.4 5.4 49 10.5
2010-06-11 07:20:43 51°13.274 2°51.279 52.9 5.9 48 10.2
2010-06-11 07:20:47 51°13.279 2°51.287 51.9 6.3 46 10
2010-06-11 07:20:52 51°13.286 2°51.297 50.2 6.7 44 10.1
2010-06-11 07:20:58 51°13.295 2°51.31 48.3 7 42 10.3
2010-06-11 07:21:03 51°13.302 2°51.32 46.9 7.3 41 10.3
2010-06-11 07:21:07 51°13.309 2°51.329 46.1 7.5 43 10.1
2010-06-11 07:21:12 51°13.316 2°51.341 47.4 7.6 46 10.3
2010-06-11 07:21:17 51°13.324 2°51.353 49.7 7.6 48 10.3
2010-06-11 07:21:23 51°13.331 2°51.369 52.2 7.5 52 10.4
2010-06-11 07:21:28 51°13.337 2°51.382 55.2 7.3 52 10.1
2010-06-11 07:21:32 51°13.341 2°51.393 56.7 7.2 55 10.2
2010-06-11 07:21:37 51°13.347 2°51.405 58.5 7 57 10.4
2010-06-11 07:21:42 51°13.351 2°51.418 59.9 6.7 56 10.4
2010-06-11 07:21:48 51°13.357 2°51.432 60.7 6.4 58 10.5
2010-06-11 07:21:52 51°13.361 2°51.441 61.1 5.8 52 10.4
2010-06-11 07:21:57 51°13.366 2°51.45 56.8 5.4 48 10.4
2010-06-11 07:22:02 51°13.371 2°51.457 50.8 5 37 10.6
2010-06-11 07:22:07 51°13.377 2°51.463 44.3 4.6 33 10.3
2010-06-11 07:22:12 51°13.382 2°51.467 39.5 4.3 27 10.2
2010-06-11 07:22:18 51°13.388 2°51.472 34.9 4.1 23 10.5
2010-06-11 07:22:22 51°13.392 2°51.473 30.3 3.8 16 10.6
2010-06-11 07:22:27 51°13.397 2°51.475 25.9 3.6 10 10.5
2010-06-11 07:22:32 51°13.401 2°51.476 21.7 3.4 5 10.5
2010-06-11 07:22:38 51°13.407 2°51.476 17.5 3.3 3 10.5
2010-06-11 07:22:43 51°13.411 2°51.476 14.6 3.2 358 10.4
2010-06-11 07:22:47 51°13.414 2°51.476 13.1 2.8 358 10.5
2010-06-11 07:22:52 51°13.418 2°51.475 12 2.5 352 10.6
2010-06-11 07:22:58 51°13.422 2°51.474 10.1 2.2 346 10.3
2010-06-11 07:23:03 51°13.424 2°51.473 7.2 2 342 10.3
2010-06-11 07:23:07 51°13.426 2°51.471 3.2 1.8 334 10.3
2010-06-11 07:23:12 51°13.428 2°51.469 359.7 1.4 327 10.5
2010-06-11 07:23:18 51°13.429 2°51.467 356.5 1.2 312 10.6
2010-06-11 07:23:23 51°13.429 2°51.465 353.6 0.8 294 10.6
2010-06-11 07:23:27 51°13.429 2°51.464 350.7 0.7 260 10.5
2010-06-11 07:23:32 51°13.429 2°51.462 347.7 0.8 246 10.5
2010-06-11 07:23:37 51°13.429 2°51.461 345.9 0.6 248 10.6
2010-06-11 07:23:43 51°13.428 2°51.459 344.1 0.7 245 10.6
2010-06-11 07:23:47 51°13.428 2°51.458 342.7 0.7 247 10.6
2010-06-11 07:23:53 51°13.428 2°51.457 341.7 0.7 244 10.6
2010-06-11 07:23:58 51°13.427 2°51.456 340.9 0.7 241 10.7
2010-06-11 07:24:02 51°13.427 2°51.455 340.5 0.7 242 10.7
2010-06-11 07:24:07 51°13.426 2°51.454 339.9 0.7 239 10.7
2010-06-11 07:24:13 51°13.426 2°51.453 339.7 0.6 233 10.5
2010-06-11 07:24:18 51°13.425 2°51.451 339.4 0.7 238 10.6
2010-06-11 07:24:22 51°13.425 2°51.45 339.3 0.6 230 10.6
2010-06-11 07:24:27 51°13.424 2°51.448 339.2 0.8 232 10.8
2010-06-11 07:24:33 51°13.423 2°51.447 339.1 0.6 223 10.8
2010-06-11 07:24:38 51°13.423 2°51.446 338.9 0.7 225 10.5
2010-06-11 07:24:42 51°13.422 2°51.445 338.2 0.7 230 10.6
2010-06-11 07:24:47 51°13.422 2°51.444 338 0.6 228 10.5
2010-06-11 07:24:53 51°13.421 2°51.443 337.6 0.6 227 10.4
2010-06-11 07:24:58 51°13.42 2°51.442 337.1 0.5 227 10.5
2010-06-11 07:25:02 51°13.42 2°51.441 336.8 0.7 231 10.4
2010-06-11 07:25:07 51°13.419 2°51.44 336.9 0.5 218 10.5
2010-06-11 07:25:12 51°13.419 2°51.44 336.8 0.6 218 10.5
2010-06-11 07:25:18 51°13.418 2°51.439 336.9 0.6 217 10.5
2010-06-11 07:25:22 51°13.417 2°51.438 337 0.7 224 10.5
2010-06-11 07:25:27 51°13.417 2°51.437 337.2 0.6 216 10.5
2010-06-11 07:25:32 51°13.416 2°51.436 337.4 0.6 221 10.6
2010-06-11 07:25:38 51°13.415 2°51.435 337.5 0.6 216 10.6
2010-06-11 07:25:42 51°13.415 2°51.434 337.9 0.6 221 10.6
2010-06-11 07:25:47 51°13.414 2°51.434 338.2 0.6 218 10.6
2010-06-11 07:25:52 51°13.413 2°51.433 338.6 0.6 218 10.6
2010-06-11 07:25:58 51°13.413 2°51.432 339 0.6 216 10.7
2010-06-11 07:26:03 51°13.412 2°51.431 339.7 0.7 214 10.6
2010-06-11 07:26:07 51°13.411 2°51.431 340.1 0.6 210 10.6
2010-06-11 07:26:12 51°13.411 2°51.43 340.8 0.6 210 10.6
2010-06-11 07:26:18 51°13.41 2°51.429 341.5 0.6 217 10.5
2010-06-11 07:26:23 51°13.409 2°51.428 342.6 0.6 210 10.7
2010-06-11 07:26:27 51°13.409 2°51.428 343.4 0.7 213 10.8
2010-06-11 07:26:32 51°13.408 2°51.427 344.1 0.6 211 10.5
2010-06-11 07:26:38 51°13.407 2°51.426 344.9 0.6 208 10.6
2010-06-11 07:26:42 51°13.406 2°51.426 345.2 0.6 215 10.5
2010-06-11 07:26:47 51°13.406 2°51.425 345.6 0.6 212 10.6
2010-06-11 07:26:52 51°13.405 2°51.424 346.4 0.6 204 10.7
2010-06-11 07:26:58 51°13.404 2°51.423 347 0.6 210 10.5
2010-06-11 07:27:03 51°13.403 2°51.423 347.5 0.6 212 10.5
2010-06-11 07:27:07 51°13.403 2°51.422 348.3 0.7 218 10.4
2010-06-11 07:27:13 51°13.402 2°51.421 348.8 0.7 215 10.7
2010-06-11 07:27:18 51°13.401 2°51.42 349.4 0.7 216 10.6
2010-06-11 07:27:22 51°13.4 2°51.42 349.9 0.6 205 10.5
2010-06-11 07:27:27 51°13.399 2°51.419 350.4 0.8 216 10.5
2010-06-11 07:27:32 51°13.398 2°51.419 350.7 0.6 201 10.5
2010-06-11 07:27:38 51°13.397 2°51.418 351.5 0.7 211 10.5
2010-06-11 07:27:42 51°13.397 2°51.418 351.9 0.6 197 10.5
2010-06-11 07:27:47 51°13.396 2°51.417 352.4 0.7 209 10.7
2010-06-11 07:27:52 51°13.395 2°51.417 352.7 0.6 203 10.7
2010-06-11 07:27:57 51°13.394 2°51.416 353.4 0.7 200 10.9
2010-06-11 07:28:02 51°13.393 2°51.415 353.6 0.7 207 10.6
2010-06-11 07:28:08 51°13.392 2°51.415 354.3 0.7 200 10.6
2010-06-11 07:28:12 51°13.391 2°51.414 355 0.8 203 10.7
2010-06-11 07:28:18 51°13.39 2°51.414 355.4 0.7 201 10.6
2010-06-11 07:28:22 51°13.389 2°51.413 355.7 0.7 201 10.7
2010-06-11 07:28:28 51°13.388 2°51.413 355.9 0.7 200 10.7
2010-06-11 07:28:32 51°13.388 2°51.412 356.2 0.8 206 10.6
2010-06-11 07:28:38 51°13.386 2°51.411 356.7 0.7 204 10.5
2010-06-11 07:28:42 51°13.386 2°51.411 357 0.7 210 10.4
2010-06-11 07:28:48 51°13.385 2°51.41 357.2 0.6 203 10.5
2010-06-11 07:28:52 51°13.384 2°51.409 357.2 0.7 205 10.6
2010-06-11 07:28:58 51°13.383 2°51.408 357.4 0.7 206 10.6
2010-06-11 07:29:02 51°13.382 2°51.408 357.8 0.7 208 10.5
2010-06-11 07:29:07 51°13.382 2°51.407 358.2 0.7 204 10.7
2010-06-11 07:29:13 51°13.38 2°51.406 358.3 0.7 213 10.6
2010-06-11 07:29:18 51°13.38 2°51.406 358.5 0.7 204 10.5
2010-06-11 07:29:22 51°13.379 2°51.405 358.6 0.7 216 10.6
2010-06-11 07:29:27 51°13.378 2°51.405 358.6 0.7 202 10.8
2010-06-11 07:29:32 51°13.377 2°51.404 358.7 0.7 209 10.7
2010-06-11 07:29:38 51°13.376 2°51.403 358.8 0.6 212 10.6
2010-06-11 07:29:42 51°13.376 2°51.402 358.8 0.7 214 10.7
2010-06-11 07:29:47 51°13.375 2°51.402 358.7 0.6 211 10.5
2010-06-11 07:29:52 51°13.374 2°51.401 358.6 0.6 213 10.6
2010-06-11 07:29:58 51°13.373 2°51.4 358.3 0.6 215 10.6
2010-06-11 07:30:02 51°13.373 2°51.399 358 0.6 214 10.6
2010-06-11 07:30:08 51°13.372 2°51.398 357.7 0.6 214 10.6
2010-06-11 07:30:12 51°13.372 2°51.398 357.3 0.6 216 10.5
2010-06-11 07:30:17 51°13.371 2°51.397 357.1 0.5 209 10.8
2010-06-11 07:30:23 51°13.37 2°51.396 356.6 0.6 213 10.8
2010-06-11 07:30:28 51°13.37 2°51.396 356.4 0.6 220 10.7
2010-06-11 07:30:32 51°13.369 2°51.395 356.2 0.5 210 10.7
2010-06-11 07:30:37 51°13.368 2°51.395 356 0.6 213 10.9
2010-06-11 07:30:43 51°13.368 2°51.394 355.7 0.6 206 10.7
2010-06-11 07:30:48 51°13.367 2°51.393 355.7 0.5 210 10.5
2010-06-11 07:30:52 51°13.366 2°51.392 355.2 0.6 222 10.5
2010-06-11 07:30:58 51°13.366 2°51.392 354.9 0.5 218 10.5
2010-06-11 07:31:02 51°13.365 2°51.391 354.8 0.5 211 10.5
2010-06-11 07:31:07 51°13.365 2°51.391 354.3 0.5 214 10.7
2010-06-11 07:31:12 51°13.364 2°51.39 354 0.5 216 10.6
2010-06-11 07:31:18 51°13.363 2°51.389 353.8 0.5 216 10.6
2010-06-11 07:31:23 51°13.363 2°51.389 353.4 0.5 211 10.7
2010-06-11 07:31:27 51°13.362 2°51.388 352.8 0.5 218 10.6
2010-06-11 07:31:32 51°13.362 2°51.387 352.1 0.4 232 10.5
2010-06-11 07:31:38 51°13.362 2°51.387 351.1 0.4 251 10.5
2010-06-11 07:31:43 51°13.362 2°51.386 349.9 0.5 277 10.5
2010-06-11 07:31:47 51°13.362 2°51.386 348.3 0.6 294 10.6
2010-06-11 07:31:52 51°13.363 2°51.384 346 0.9 300 10.7
2010-06-11 07:31:58 51°13.364 2°51.382 343.4 1.1 306 10.6
2010-06-11 07:32:03 51°13.365 2°51.38 340.4 1.3 306 10.6
2010-06-11 07:32:07 51°13.366 2°51.377 336.7 1.5 304 10.5
2010-06-11 07:32:12 51°13.368 2°51.374 332.6 1.7 303 10.7
2010-06-11 07:32:18 51°13.369 2°51.37 328.5 1.9 302 10.8
2010-06-11 07:32:23 51°13.371 2°51.366 324.5 2.1 298 10.6
2010-06-11 07:32:28 51°13.372 2°51.361 319.9 2.2 295 10.4
2010-06-11 07:32:32 51°13.373 2°51.357 315.1 2.3 292 10.5
2010-06-11 07:32:37 51°13.374 2°51.352 310.5 2.5 287 10.8
2010-06-11 07:32:43 51°13.375 2°51.345 306.1 2.6 285 11
2010-06-11 07:32:48 51°13.376 2°51.339 301.6 2.7 280 10.9
2010-06-11 07:32:52 51°13.376 2°51.335 296.7 2.8 277 10.8
2010-06-11 07:32:57 51°13.376 2°51.328 291.7 3 272 11
2010-06-11 07:33:03 51°13.377 2°51.32 287.3 3.1 270 10.9
2010-06-11 07:33:08 51°13.377 2°51.313 283.2 3.2 271 10.6
2010-06-11 07:33:12 51°13.376 2°51.307 278.9 3.3 265 10.6
2010-06-11 07:33:18 51°13.375 2°51.298 275.6 3.4 261 10.9
2010-06-11 07:33:22 51°13.375 2°51.292 271.6 3.5 259 10.9
2010-06-11 07:33:27 51°13.373 2°51.285 267.2 3.6 255 10.9
2010-06-11 07:33:32 51°13.372 2°51.277 262 3.6 251 10.8
2010-06-11 07:33:38 51°13.369 2°51.268 258.2 3.7 248 10.8
2010-06-11 07:33:43 51°13.367 2°51.261 253.4 3.7 242 10.8
2010-06-11 07:33:47 51°13.365 2°51.255 248.1 3.7 241 10.5
2010-06-11 07:33:52 51°13.362 2°51.248 241.6 3.8 234 10.9
2010-06-11 07:33:58 51°13.358 2°51.24 237.3 3.7 231 10.9
2010-06-11 07:34:03 51°13.354 2°51.234 231.6 3.8 224 11
2010-06-11 07:34:07 51°13.351 2°51.23 226 3.7 220 10.9
2010-06-11 07:34:12 51°13.347 2°51.225 219.9 3.7 217 10.7
2010-06-11 07:34:18 51°13.341 2°51.22 212.8 3.6 210 10.9
2010-06-11 07:34:23 51°13.337 2°51.216 208.1 3.6 208 10.7
2010-06-11 07:34:27 51°13.333 2°51.214 201.1 3.5 201 10.8
2010-06-11 07:34:32 51°13.328 2°51.212 196.6 3.5 199 10.5
2010-06-11 07:34:37 51°13.323 2°51.21 189.5 3.6 195 10.7
2010-06-11 07:34:43 51°13.317 2°51.209 185.9 3.6 190 10.8
2010-06-11 07:34:47 51°13.314 2°51.207 180.7 3.6 188 10.7
2010-06-11 07:34:51 51°13.31 2°51.207 177.4 3.7 185 10.8
2010-06-11 07:34:58 51°13.303 2°51.206 175 3.7 183 10.8
2010-06-11 07:35:03 51°13.298 2°51.206 173 3.8 181 10.8
2010-06-11 07:35:07 51°13.293 2°51.206 171.9 3.9 178 10.7
2010-06-11 07:35:13 51°13.287 2°51.206 171.1 3.8 179 10.7
2010-06-11 07:35:18 51°13.282 2°51.207 170 3.8 177 10.7
2010-06-11 07:35:22 51°13.278 2°51.207 169.8 3.8 178 10.7
2010-06-11 07:35:27 51°13.273 2°51.207 169.6 3.8 178 10.8
2010-06-11 07:35:33 51°13.266 2°51.207 169.6 3.8 178 10.7
2010-06-11 07:35:38 51°13.261 2°51.207 169.8 3.7 181 10.5
2010-06-11 07:35:42 51°13.257 2°51.207 170.3 3.8 178 10.8
2010-06-11 07:35:47 51°13.252 2°51.207 170.8 3.8 181 10.4
2010-06-11 07:35:53 51°13.245 2°51.207 171.1 3.8 180 10.7
2010-06-11 07:35:58 51°13.24 2°51.207 171.6 3.7 181 10.6
2010-06-11 07:36:02 51°13.236 2°51.207 171.8 3.7 182 10.5
2010-06-11 07:36:07 51°13.231 2°51.207 172.4 3.7 181 10.5
2010-06-11 07:36:13 51°13.225 2°51.207 172.6 3.7 181 10.5
2010-06-11 07:36:18 51°13.22 2°51.206 173 3.6 181 10.5
2010-06-11 07:36:22 51°13.216 2°51.206 173 3.7 182 10.4
2010-06-11 07:36:27 51°13.211 2°51.206 173.3 3.6 182 10.4
2010-06-11 07:36:32 51°13.206 2°51.205 173.4 3.6 183 10.4
2010-06-11 07:36:38 51°13.2 2°51.205 173.5 3.6 183 10.3
2010-06-11 07:36:42 51°13.196 2°51.205 173.8 3.6 181 10.5
2010-06-11 07:36:47 51°13.191 2°51.204 173.7 3.6 184 10.3
2010-06-11 07:36:52 51°13.186 2°51.204 174.3 3.6 182 10.4
2010-06-11 07:36:57 51°13.181 2°51.204 174.2 3.5 184 10.2
2010-06-11 07:37:03 51°13.176 2°51.203 174.5 3.5 182 10.4
2010-06-11 07:37:08 51°13.171 2°51.203 174.4 3.5 184 10.3
2010-06-11 07:37:12 51°13.167 2°51.203 174.6 3.5 181 10.3
2010-06-11 07:37:17 51°13.162 2°51.202 174.4 3.5 185 10.3
2010-06-11 07:37:23 51°13.156 2°51.202 174.9 3.5 182 10.1
2010-06-11 07:37:28 51°13.152 2°51.201 174.8 3.5 185 10.3
2010-06-11 07:37:32 51°13.148 2°51.201 174.8 3.5 183 10.1
2010-06-11 07:37:37 51°13.143 2°51.2 174.8 3.5 184 10.2
2010-06-11 07:37:42 51°13.138 2°51.2 174.9 3.4 183 10.1
2010-06-11 07:37:48 51°13.133 2°51.199 175 3.4 183 10.2
2010-06-11 07:37:52 51°13.129 2°51.198 175.1 3.4 184 10.1
2010-06-11 07:37:58 51°13.123 2°51.198 175.3 3.4 185 10.1
2010-06-11 07:38:03 51°13.118 2°51.197 175.7 3.5 184 10.1
2010-06-11 07:38:08 51°13.113 2°51.197 175.9 3.4 184 9.9
2010-06-11 07:38:12 51°13.11 2°51.196 176.2 3.4 185 10.1
2010-06-11 07:38:18 51°13.104 2°51.196 176.4 3.3 184 10
2010-06-11 07:38:23 51°13.099 2°51.195 176.5 3.4 185 10
2010-06-11 07:38:27 51°13.095 2°51.195 176.9 3.4 186 9.8
2010-06-11 07:38:32 51°13.091 2°51.194 177.6 3.5 185 9.8
2010-06-11 07:38:38 51°13.085 2°51.193 177.9 3.5 186 9.9
2010-06-11 07:38:43 51°13.08 2°51.192 178.6 3.6 185 9.8
2010-06-11 07:38:47 51°13.076 2°51.192 178.7 3.6 188 9.8
2010-06-11 07:38:52 51°13.071 2°51.191 179.9 3.7 185 9.9
2010-06-11 07:38:58 51°13.065 2°51.189 179.8 3.8 190 9.8
2010-06-11 07:39:03 51°13.059 2°51.188 180.9 3.8 187 9.8
2010-06-11 07:39:07 51°13.055 2°51.187 181.7 3.9 192 9.8
2010-06-11 07:39:12 51°13.05 2°51.186 183.4 3.9 188 9.6
2010-06-11 07:39:17 51°13.044 2°51.184 184.6 4 194 9.8
2010-06-11 07:39:23 51°13.037 2°51.182 187 4 191 9.8
2010-06-11 07:39:28 51°13.032 2°51.179 188.1 4 197 9.6
2010-06-11 07:39:32 51°13.028 2°51.177 189.9 4.1 196 9.6
2010-06-11 07:39:37 51°13.022 2°51.174 191.7 4.1 198 9.6
2010-06-11 07:39:43 51°13.016 2°51.171 193.6 4 197 9.7
2010-06-11 07:39:48 51°13.011 2°51.168 194.9 4.1 201 9.6
2010-06-11 07:39:52 51°13.006 2°51.165 196.3 4.1 202 9.5
2010-06-11 07:39:57 51°13.001 2°51.161 198 4.1 204 9.5
2010-06-11 07:40:02 51°12.996 2°51.158 200 4.1 205 9.5
2010-06-11 07:40:08 51°12.99 2°51.153 201.9 4.2 205 9.6
2010-06-11 07:40:12 51°12.986 2°51.149 203.7 4.1 208 9.5
2010-06-11 07:40:18 51°12.98 2°51.144 205.5 4.1 208 9.8
2010-06-11 07:40:22 51°12.976 2°51.14 207.5 4.1 209 9.5
2010-06-11 07:40:27 51°12.971 2°51.135 208.4 4.1 214 9.6
2010-06-11 07:40:32 51°12.967 2°51.131 210.6 4.1 213 9.4
2010-06-11 07:40:38 51°12.961 2°51.125 211.4 4.1 215 9.7
2010-06-11 07:40:43 51°12.956 2°51.12 212.7 4.1 212 9.6
2010-06-11 07:40:47 51°12.952 2°51.116 213.5 4.1 217 9.6
2010-06-11 07:40:52 51°12.948 2°51.11 214.9 4.1 213 9.7
2010-06-11 07:40:58 51°12.942 2°51.103 215.7 4.1 221 9.4
2010-06-11 07:41:03 51°12.938 2°51.098 216.9 4.1 216 9.5
2010-06-11 07:41:07 51°12.934 2°51.093 217.8 4.1 222 9.5
2010-06-11 07:41:12 51°12.93 2°51.088 218.8 4.1 219 9.6
2010-06-11 07:41:18 51°12.925 2°51.08 219.3 4.2 222 9.7
2010-06-11 07:41:23 51°12.92 2°51.075 220.7 4.1 220 9.7
2010-06-11 07:41:27 51°12.917 2°51.069 221.2 4.1 222 9.7
2010-06-11 07:41:32 51°12.913 2°51.063 222.2 4.1 224 9.6
2010-06-11 07:41:37 51°12.909 2°51.057 223.3 4 224 9.7
2010-06-11 07:41:43 51°12.904 2°51.049 224.4 4 226 9.4
2010-06-11 07:41:47 51°12.901 2°51.044 225.3 4 226 9.6
2010-06-11 07:41:52 51°12.898 2°51.038 226.8 3.9 225 9.8
2010-06-11 07:41:57 51°12.894 2°51.031 228.3 4 232 9.5
2010-06-11 07:42:03 51°12.89 2°51.023 229.9 4 227 9.4
2010-06-11 07:42:08 51°12.886 2°51.016 230.8 4 233 9.5
2010-06-11 07:42:12 51°12.884 2°51.011 232.4 4 229 9.4
2010-06-11 07:42:17 51°12.88 2°51.004 233.5 4 237 9.2
2010-06-11 07:42:22 51°12.877 2°50.997 234.9 4 231 9.1
2010-06-11 07:42:28 51°12.873 2°50.988 236.2 4 238 9.3
2010-06-11 07:42:32 51°12.87 2°50.983 237.5 3.9 232 9.5
2010-06-11 07:42:37 51°12.868 2°50.975 238.2 3.9 236 9.4
2010-06-11 07:42:42 51°12.864 2°50.968 238.5 4 239 9
2010-06-11 07:42:47 51°12.861 2°50.961 239 3.9 235 9.2
2010-06-11 07:42:52 51°12.859 2°50.954 238.5 3.9 237 9.3
2010-06-11 07:42:58 51°12.855 2°50.945 238.2 3.9 236 9.5
2010-06-11 07:43:03 51°12.852 2°50.938 238.2 3.9 233 9.7
2010-06-11 07:43:07 51°12.849 2°50.933 237.7 3.9 238 9.5
2010-06-11 07:43:12 51°12.846 2°50.925 237.6 3.9 233 9.6
2010-06-11 07:43:18 51°12.843 2°50.916 237.4 3.9 237 9.4
2010-06-11 07:43:23 51°12.84 2°50.91 237 3.9 236 9.5
2010-06-11 07:43:27 51°12.837 2°50.904 237.1 3.9 235 9.6
2010-06-11 07:43:32 51°12.834 2°50.897 237 3.9 234 9.6
2010-06-11 07:43:37 51°12.831 2°50.89 237 3.9 234 9.6
2010-06-11 07:43:43 51°12.827 2°50.881 237.1 3.9 235 9.5
2010-06-11 07:43:47 51°12.825 2°50.876 236.7 3.9 236 9.4
2010-06-11 07:43:52 51°12.822 2°50.868 236.9 3.9 234 9.4
2010-06-11 07:43:57 51°12.819 2°50.861 236.7 3.9 236 9.5
2010-06-11 07:44:03 51°12.815 2°50.853 236.8 3.9 236 9.4
2010-06-11 07:44:07 51°12.812 2°50.847 236.7 3.9 234 9.5
2010-06-11 07:44:12 51°12.809 2°50.84 236.5 3.8 233 9.7
2010-06-11 07:44:17 51°12.806 2°50.833 236.4 3.8 236 9.4
2010-06-11 07:44:22 51°12.803 2°50.826 236 3.8 235 9.3
2010-06-11 07:44:27 51°12.8 2°50.819 236.2 3.8 235 9.4
2010-06-11 07:44:32 51°12.797 2°50.812 236.4 3.8 236 9.4
2010-06-11 07:44:37 51°12.794 2°50.806 236.7 3.7 234 9.6
2010-06-11 07:44:42 51°12.792 2°50.799 236.9 3.6 237 9.2
2010-06-11 07:44:48 51°12.788 2°50.791 236.8 3.7 234 9.5
2010-06-11 07:44:52 51°12.786 2°50.786 237.2 3.6 234 9.4
2010-06-11 07:44:58 51°12.782 2°50.778 236.9 3.6 236 9.4
2010-06-11 07:45:02 51°12.78 2°50.773 237.2 3.5 232 9.5
2010-06-11 07:45:07 51°12.777 2°50.766 236.7 3.6 237 9.5
2010-06-11 07:45:12 51°12.774 2°50.76 237.6 3.5 229 9.6
2010-06-11 07:45:18 51°12.771 2°50.752 237 3.6 242 9.1
2010-06-11 07:45:22 51°12.768 2°50.748 237.4 3.5 229 9.3
2010-06-11 07:45:27 51°12.766 2°50.741 237.1 3.5 238 9.3
2010-06-11 07:45:32 51°12.763 2°50.735 236.9 3.5 230 9.5
2010-06-11 07:45:38 51°12.76 2°50.727 237 3.5 239 9.3
2010-06-11 07:45:43 51°12.757 2°50.722 236.7 3.4 230 9.5
2010-06-11 07:45:47 51°12.755 2°50.717 236.6 3.4 236 9.4
2010-06-11 07:45:52 51°12.752 2°50.711 236 3.4 232 9.5
2010-06-11 07:45:58 51°12.749 2°50.704 236 3.3 234 9.5
2010-06-11 07:46:03 51°12.746 2°50.698 236.2 3.3 235 9.4
2010-06-11 07:46:07 51°12.744 2°50.693 236.2 3.3 233 9.6
2010-06-11 07:46:12 51°12.741 2°50.687 236.6 3.3 233 9.6
2010-06-11 07:46:18 51°12.738 2°50.679 236.7 3.3 237 9.5
2010-06-11 07:46:23 51°12.735 2°50.674 237 3.3 234 9.3
2010-06-11 07:46:27 51°12.733 2°50.669 237.4 3.3 236 9.3
2010-06-11 07:46:32 51°12.731 2°50.663 237.2 3.3 234 9.3
2010-06-11 07:46:38 51°12.727 2°50.656 237.4 3.3 235 9.3
2010-06-11 07:46:42 51°12.725 2°50.651 237.7 3.4 236 9.3
2010-06-11 07:46:47 51°12.723 2°50.645 238.2 3.4 236 9.3
2010-06-11 07:46:53 51°12.719 2°50.637 238.7 3.4 234 9.4
2010-06-11 07:46:58 51°12.717 2°50.631 239.4 3.4 235 9.5
2010-06-11 07:47:02 51°12.714 2°50.626 240 3.4 233 9.7
2010-06-11 07:47:08 51°12.711 2°50.618 240.3 3.5 238 9.3
2010-06-11 07:47:13 51°12.708 2°50.612 240.6 3.5 238 9.3
2010-06-11 07:47:18 51°12.706 2°50.605 241.1 3.5 239 9.4
2010-06-11 07:47:22 51°12.704 2°50.6 242 3.6 240 9.3
2010-06-11 07:47:27 51°12.701 2°50.593 242.9 3.6 238 9.4
2010-06-11 07:47:32 51°12.699 2°50.586 243.2 3.5 239 9.5
2010-06-11 07:47:38 51°12.696 2°50.578 244.1 3.6 240 9.6
2010-06-11 07:47:42 51°12.694 2°50.572 244.7 3.6 240 9.5
2010-06-11 07:47:47 51°12.692 2°50.565 244.9 3.6 242 9.3
2010-06-11 07:47:51 51°12.69 2°50.559 245.1 3.6 240 9.4
2010-06-11 07:47:58 51°12.687 2°50.55 245.4 3.6 241 9.7
2010-06-11 07:48:03 51°12.684 2°50.543 245.8 3.6 241 9.5
2010-06-11 07:48:07 51°12.682 2°50.537 246 3.6 240 9.8
2010-06-11 07:48:12 51°12.68 2°50.53 245.8 3.6 242 9.5
2010-06-11 07:48:17 51°12.678 2°50.523 245.5 3.6 243 9.2
2010-06-11 07:48:23 51°12.675 2°50.515 245.4 3.6 239 9.3
2010-06-11 07:48:27 51°12.673 2°50.509 244.9 3.6 243 9
2010-06-11 07:48:32 51°12.67 2°50.502 244.6 3.6 241 9.1
2010-06-11 07:48:37 51°12.668 2°50.495 244.7 3.5 239 9.6
2010-06-11 07:48:42 51°12.666 2°50.488 244.7 3.6 242 9.5
2010-06-11 07:48:47 51°12.663 2°50.482 244.5 3.6 241 9.6
2010-06-11 07:48:52 51°12.661 2°50.475 244.8 3.5 237 9.7
2010-06-11 07:48:57 51°12.659 2°50.468 244.5 3.6 245 9.5
2010-06-11 07:49:02 51°12.656 2°50.461 245 3.6 237 9.9
2010-06-11 07:49:07 51°12.654 2°50.454 245.4 3.6 239 9.7
2010-06-11 07:49:12 51°12.651 2°50.447 244.5 3.7 239 9.3
2010-06-11 07:49:17 51°12.649 2°50.44 244.2 3.7 243 9
2010-06-11 07:49:22 51°12.646 2°50.434 244.4 3.6 240 9.4
2010-06-11 07:49:27 51°12.643 2°50.427 244.4 3.5 238 9.4
2010-06-11 07:49:32 51°12.641 2°50.42 243.7 3.6 237 9.6
2010-06-11 07:49:38 51°12.638 2°50.411 242.8 3.6 241 9.4
2010-06-11 07:49:42 51°12.636 2°50.406 242.9 3.6 238 9.5
2010-06-11 07:49:47 51°12.633 2°50.4 242.9 3.6 238 9.5
2010-06-11 07:49:52 51°12.631 2°50.393 243 3.5 239 9.1
2010-06-11 07:49:58 51°12.628 2°50.385 243 3.5 238 9.2
2010-06-11 07:50:03 51°12.626 2°50.379 242.9 3.5 240 9.3
2010-06-11 07:50:07 51°12.624 2°50.373 243.2 3.4 241 9.2
2010-06-11 07:50:12 51°12.621 2°50.367 243.4 3.4 238 9.3
2010-06-11 07:50:18 51°12.618 2°50.359 243.4 3.4 240 9.2
2010-06-11 07:50:23 51°12.616 2°50.353 243.7 3.4 241 9.2
2010-06-11 07:50:27 51°12.614 2°50.348 244 3.4 237 9.5
2010-06-11 07:50:32 51°12.612 2°50.341 244 3.4 239 9.6
2010-06-11 07:50:37 51°12.609 2°50.335 244.2 3.4 241 9.3
2010-06-11 07:50:43 51°12.607 2°50.327 244.4 3.4 241 9.2
2010-06-11 07:50:47 51°12.605 2°50.322 244.7 3.4 242 9.3
2010-06-11 07:50:52 51°12.603 2°50.315 244.7 3.4 241 9.4
2010-06-11 07:50:58 51°12.6 2°50.307 245 3.4 243 9.2
2010-06-11 07:51:03 51°12.597 2°50.301 245 3.4 239 9.3
2010-06-11 07:51:07 51°12.595 2°50.296 244.5 3.4 239 9.4
2010-06-11 07:51:13 51°12.593 2°50.288 244 3.4 242 9.3
2010-06-11 07:51:18 51°12.59 2°50.281 244.3 3.4 238 9.4
2010-06-11 07:51:22 51°12.588 2°50.276 243.9 3.4 240 9.6
2010-06-11 07:51:27 51°12.586 2°50.27 243.8 3.4 241 9.5
2010-06-11 07:51:33 51°12.583 2°50.262 243.6 3.4 238 9.7
2010-06-11 07:51:38 51°12.581 2°50.255 244 3.4 237 9.5
2010-06-11 07:51:42 51°12.579 2°50.25 242.8 3.5 243 9.4
2010-06-11 07:51:47 51°12.576 2°50.244 243.1 3.4 237 9.5
2010-06-11 07:51:52 51°12.574 2°50.237 242.7 3.4 241 9.4
2010-06-11 07:51:58 51°12.571 2°50.229 242.7 3.4 238 9.5
2010-06-11 07:52:02 51°12.569 2°50.224 242.8 3.4 243 9.3
2010-06-11 07:52:07 51°12.567 2°50.218 243.1 3.4 237 9.5
2010-06-11 07:52:12 51°12.564 2°50.211 242.8 3.4 238 9.6
2010-06-11 07:52:18 51°12.561 2°50.203 243.2 3.5 237 9.3
2010-06-11 07:52:22 51°12.56 2°50.198 242.6 3.5 243 9.1
2010-06-11 07:52:27 51°12.557 2°50.192 242.6 3.4 235 9.5
2010-06-11 07:52:32 51°12.554 2°50.185 242.6 3.4 238 9.6
2010-06-11 07:52:38 51°12.552 2°50.177 242.3 3.4 238 9.5
2010-06-11 07:52:43 51°12.549 2°50.171 242.5 3.4 241 9.3
2010-06-11 07:52:47 51°12.547 2°50.166 242.7 3.4 237 9.5
2010-06-11 07:52:52 51°12.545 2°50.159 242.6 3.4 241 9.4
2010-06-11 07:52:58 51°12.542 2°50.152 242.9 3.4 237 9.6
2010-06-11 07:53:03 51°12.539 2°50.145 243 3.4 236 9.7
2010-06-11 07:53:07 51°12.537 2°50.14 243.2 3.4 239 9.3
2010-06-11 07:53:13 51°12.534 2°50.132 243 3.4 237 9.5
2010-06-11 07:53:18 51°12.532 2°50.126 242.8 3.4 238 9.5
2010-06-11 07:53:22 51°12.53 2°50.12 242.5 3.5 237 9.4
2010-06-11 07:53:27 51°12.527 2°50.114 242.2 3.5 239 9.4
2010-06-11 07:53:33 51°12.524 2°50.106 242.1 3.5 238 9.4
2010-06-11 07:53:38 51°12.522 2°50.099 242.3 3.5 238 9.3
2010-06-11 07:53:42 51°12.52 2°50.094 242 3.5 241 9
2010-06-11 07:53:47 51°12.517 2°50.087 242.2 3.6 237 9.2
2010-06-11 07:53:53 51°12.514 2°50.079 242.4 3.6 242 9.2
2010-06-11 07:53:58 51°12.512 2°50.073 242.9 3.5 237 9.3
2010-06-11 07:54:02 51°12.51 2°50.067 242.8 3.6 241 9.2
2010-06-11 07:54:07 51°12.507 2°50.061 243.2 3.5 240 9
2010-06-11 07:54:12 51°12.505 2°50.054 243.3 3.5 240 9.1
2010-06-11 07:54:18 51°12.502 2°50.046 243.3 3.5 239 9.1
2010-06-11 07:54:22 51°12.5 2°50.041 242.7 3.5 238 9.3
2010-06-11 07:54:27 51°12.497 2°50.034 242.5 3.5 238 9.4
2010-06-11 07:54:32 51°12.494 2°50.027 241.9 3.5 240 9.4
2010-06-11 07:54:38 51°12.491 2°50.019 242.4 3.6 237 9.4
2010-06-11 07:54:42 51°12.489 2°50.014 242.5 3.5 242 9.3
2010-06-11 07:54:47 51°12.487 2°50.007 242.8 3.5 236 9.6
2010-06-11 07:54:52 51°12.485 2°50 243.2 3.6 240 9.5
2010-06-11 07:54:58 51°12.481 2°49.992 243.6 3.7 241 9.1
2010-06-11 07:55:03 51°12.479 2°49.985 244.3 3.6 241 9.1
2010-06-11 07:55:07 51°12.477 2°49.979 244.3 3.7 237 9.3
2010-06-11 07:55:12 51°12.474 2°49.972 243.6 3.6 243 9.1
2010-06-11 07:55:18 51°12.471 2°49.964 243.8 3.7 237 9.4
2010-06-11 07:55:22 51°12.469 2°49.959 244 3.6 243 9.3
2010-06-11 07:55:27 51°12.467 2°49.952 244.4 3.6 238 9.5
2010-06-11 07:55:33 51°12.464 2°49.943 244.2 3.6 247 9.2
2010-06-11 07:55:38 51°12.461 2°49.937 244.3 3.6 235 9.6
2010-06-11 07:55:42 51°12.46 2°49.931 244.4 3.5 240 9.6
2010-06-11 07:55:47 51°12.457 2°49.924 244 3.6 242 9.2
2010-06-11 07:55:53 51°12.454 2°49.916 244.3 3.6 241 9.3
2010-06-11 07:55:58 51°12.451 2°49.91 244 3.5 236 9.5
2010-06-11 07:56:03 51°12.449 2°49.903 243.2 3.5 242 9.3
2010-06-11 07:56:07 51°12.447 2°49.898 243.2 3.5 236 9.6
2010-06-11 07:56:12 51°12.445 2°49.89 243.2 3.5 243 9.5
2010-06-11 07:56:18 51°12.442 2°49.883 243.3 3.5 238 9.5
2010-06-11 07:56:23 51°12.44 2°49.876 243.5 3.5 243 9.4
2010-06-11 07:56:27 51°12.437 2°49.87 244 3.5 237 9.6
2010-06-11 07:56:32 51°12.435 2°49.863 244 3.5 241 9.5
2010-06-11 07:56:38 51°12.432 2°49.855 244 3.5 240 9.4
2010-06-11 07:56:43 51°12.43 2°49.848 244 3.5 241 9.3
2010-06-11 07:56:47 51°12.428 2°49.843 243.9 3.6 242 9.3
2010-06-11 07:56:53 51°12.425 2°49.835 244 3.6 240 9.5
2010-06-11 07:56:58 51°12.422 2°49.827 244 3.6 239 9.6
2010-06-11 07:57:03 51°12.42 2°49.82 243.7 3.7 240 9.5
2010-06-11 07:57:07 51°12.418 2°49.815 243.8 3.7 241 9.2
2010-06-11 07:57:13 51°12.415 2°49.806 243.7 3.7 243 9.2
2010-06-11 07:57:17 51°12.413 2°49.801 243.6 3.7 241 9.4
2010-06-11 07:57:23 51°12.41 2°49.792 243.5 3.6 239 9.5
2010-06-11 07:57:27 51°12.408 2°49.786 243.7 3.7 243 9.2
2010-06-11 07:57:33 51°12.405 2°49.778 243.8 3.7 240 9.1
2010-06-11 07:57:37 51°12.403 2°49.772 244 3.7 243 9.1
2010-06-11 07:57:43 51°12.4 2°49.764 244.4 3.7 243 9.1
2010-06-11 07:57:47 51°12.398 2°49.758 244.7 3.7 240 9.3
2010-06-11 07:57:53 51°12.395 2°49.749 244.5 3.7 243 9.2
2010-06-11 07:57:57 51°12.393 2°49.744 244.5 3.7 238 9.4
2010-06-11 07:58:02 51°12.391 2°49.737 244 3.7 240 9.4
2010-06-11 07:58:07 51°12.388 2°49.73 243.7 3.7 243 9
2010-06-11 07:58:13 51°12.385 2°49.721 244 3.8 238 9.4
2010-06-11 07:58:17 51°12.383 2°49.715 243.7 3.8 243 9.4
2010-06-11 07:58:22 51°12.38 2°49.708 243.6 3.8 235 9.8
2010-06-11 07:58:27 51°12.378 2°49.701 243.2 3.8 240 9.7
2010-06-11 07:58:32 51°12.375 2°49.694 242.7 3.8 236 9.7
2010-06-11 07:58:38 51°12.372 2°49.685 242.5 3.8 241 9.2
2010-06-11 07:58:42 51°12.369 2°49.68 242.2 3.8 239 9.4
2010-06-11 07:58:47 51°12.367 2°49.673 242.2 3.8 238 9.4
2010-06-11 07:58:52 51°12.364 2°49.666 242 3.7 239 9.2
2010-06-11 07:58:58 51°12.361 2°49.657 242 3.7 237 9.6
2010-06-11 07:59:03 51°12.358 2°49.65 242 3.7 235 9.8
2010-06-11 07:59:07 51°12.356 2°49.644 241.9 3.8 237 9.7
2010-06-11 07:59:12 51°12.353 2°49.638 241.4 3.7 241 9
2010-06-11 07:59:18 51°12.349 2°49.63 241.3 3.6 236 9.2
2010-06-11 07:59:23 51°12.347 2°49.623 241.3 3.7 234 9.5
2010-06-11 07:59:27 51°12.345 2°49.617 241.1 3.6 240 9.4
2010-06-11 07:59:32 51°12.342 2°49.611 241.5 3.6 235 9.3
2010-06-11 07:59:37 51°12.339 2°49.604 241.4 3.6 242 9.1
2010-06-11 07:59:43 51°12.336 2°49.596 242 3.6 238 9
2010-06-11 07:59:47 51°12.334 2°49.59 242.3 3.6 240 9.3
2010-06-11 07:59:52 51°12.331 2°49.584 242.9 3.6 237 9.4
2010-06-11 07:59:58 51°12.328 2°49.575 242.9 3.6 241 9.3
2010-06-11 08:00:03 51°12.326 2°49.569 243.5 3.6 238 9.2
2010-06-11 08:00:07 51°12.324 2°49.563 243.7 3.6 245 9
2010-06-11 08:00:13 51°12.321 2°49.555 244.1 3.7 236 9.4
2010-06-11 08:00:18 51°12.318 2°49.548 244 3.6 242 9.4
2010-06-11 08:00:22 51°12.316 2°49.542 244.3 3.6 238 9.4
2010-06-11 08:00:27 51°12.314 2°49.535 244.4 3.5 239 9.3
2010-06-11 08:00:33 51°12.311 2°49.527 243.7 3.5 236 9.5
2010-06-11 08:00:38 51°12.308 2°49.521 243.4 3.5 239 9.5
2010-06-11 08:00:42 51°12.306 2°49.515 243.4 3.5 237 9.3
2010-06-11 08:00:47 51°12.304 2°49.508 242.7 3.6 241 9.2
2010-06-11 08:00:52 51°12.301 2°49.502 243.1 3.5 237 9.2
2010-06-11 08:00:58 51°12.298 2°49.493 243.2 3.5 240 9.1
2010-06-11 08:01:02 51°12.296 2°49.488 242.6 3.6 237 8.9
2010-06-11 08:01:07 51°12.293 2°49.481 242.1 3.6 237 9.2
2010-06-11 08:01:12 51°12.291 2°49.475 241.8 3.6 237 9.3
2010-06-11 08:01:18 51°12.288 2°49.467 241.8 3.6 239 9.2
2010-06-11 08:01:23 51°12.285 2°49.46 242 3.6 237 9.4
2010-06-11 08:01:27 51°12.283 2°49.455 242.2 3.6 240 9.1
2010-06-11 08:01:32 51°12.28 2°49.448 242.2 3.6 239 9.2
2010-06-11 08:01:38 51°12.277 2°49.44 242.3 3.6 239 9.1
2010-06-11 08:01:43 51°12.275 2°49.433 242.4 3.6 242 9
2010-06-11 08:01:47 51°12.272 2°49.428 242.5 3.7 238 9.1
2010-06-11 08:01:52 51°12.27 2°49.421 243.2 3.6 240 9.1
2010-06-11 08:01:58 51°12.267 2°49.413 243 3.5 239 9.2
2010-06-11 08:02:02 51°12.265 2°49.407 243.2 3.5 241 9.5
2010-06-11 08:02:07 51°12.262 2°49.401 244.2 3.5 240 9.3
2010-06-11 08:02:13 51°12.26 2°49.392 245.5 3.5 242 9.4
2010-06-11 08:02:18 51°12.258 2°49.385 246.5 3.5 243 9.2
2010-06-11 08:02:22 51°12.256 2°49.38 247.9 3.5 245 9
2010-06-11 08:02:27 51°12.254 2°49.373 249 3.5 246 9.1
2010-06-11 08:02:33 51°12.251 2°49.365 250.4 3.5 243 9.4
2010-06-11 08:02:38 51°12.25 2°49.358 251.6 3.4 248 9.2
2010-06-11 08:02:42 51°12.248 2°49.352 253.1 3.4 249 9.4
2010-06-11 08:02:47 51°12.246 2°49.345 254.1 3.5 246 9.6
2010-06-11 08:02:53 51°12.244 2°49.336 254.9 3.5 248 9.6
2010-06-11 08:02:58 51°12.243 2°49.329 256 3.5 249 9.4
2010-06-11 08:03:02 51°12.242 2°49.323 257 3.4 254 9.1
2010-06-11 08:03:07 51°12.24 2°49.316 258.2 3.4 253 9.1
2010-06-11 08:03:12 51°12.239 2°49.308 259.9 3.5 256 9.3
2010-06-11 08:03:18 51°12.238 2°49.3 262 3.4 255 9.3
2010-06-11 08:03:22 51°12.237 2°49.294 264.3 3.4 260 9.3
2010-06-11 08:03:27 51°12.236 2°49.286 266.4 3.3 259 9.3
2010-06-11 08:03:32 51°12.236 2°49.279 268.2 3.3 263 9.4
2010-06-11 08:03:38 51°12.235 2°49.271 270.4 3.3 260 9.5
2010-06-11 08:03:43 51°12.235 2°49.264 272.6 3.2 265 9.3
2010-06-11 08:03:47 51°12.234 2°49.259 274.3 3.2 266 9.4
2010-06-11 08:03:52 51°12.234 2°49.251 275.9 3.2 270 9.3
2010-06-11 08:03:58 51°12.234 2°49.243 277.3 3.2 270 9.2
2010-06-11 08:04:03 51°12.234 2°49.236 278.1 3.1 271 9.2
2010-06-11 08:04:07 51°12.234 2°49.23 279.2 3.1 273 9.2
2010-06-11 08:04:12 51°12.235 2°49.223 280 3.1 273 9.2
2010-06-11 08:04:18 51°12.235 2°49.215 280.6 3.2 274 9.4
2010-06-11 08:04:22 51°12.235 2°49.209 281.7 3.2 275 9.5
2010-06-11 08:04:27 51°12.236 2°49.202 282.6 3.2 276 9.6
2010-06-11 08:04:33 51°12.237 2°49.194 283.5 3.2 277 9.6
2010-06-11 08:04:38 51°12.237 2°49.187 284 3.2 279 9.5
2010-06-11 08:04:42 51°12.238 2°49.181 284.5 3.2 280 9.3
2010-06-11 08:04:47 51°12.239 2°49.174 284.7 3.1 280 9.2
2010-06-11 08:04:53 51°12.239 2°49.166 284.9 3.1 280 9.3
2010-06-11 08:04:58 51°12.24 2°49.159 285.2 3.1 280 9.2
2010-06-11 08:05:03 51°12.241 2°49.152 285.6 3.2 276 9.8
2010-06-11 08:05:07 51°12.241 2°49.147 285.9 3.2 278 9.8
2010-06-11 08:05:13 51°12.242 2°49.139 286.1 3.1 280 9.4
2010-06-11 08:05:18 51°12.243 2°49.131 285.3 3.2 277 9.7
2010-06-11 08:05:23 51°12.243 2°49.125 285.3 3.2 279 9.7
2010-06-11 08:05:27 51°12.244 2°49.119 285.3 3.2 279 9.6
2010-06-11 08:05:32 51°12.245 2°49.112 285.3 3.1 279 9.5
2010-06-11 08:05:38 51°12.246 2°49.104 285 3.2 280 9.5
2010-06-11 08:05:43 51°12.246 2°49.098 284.9 3.1 277 9.8
2010-06-11 08:05:47 51°12.247 2°49.092 285.2 3.2 279 10.1
2010-06-11 08:05:52 51°12.247 2°49.085 285.7 3.1 278 9.8
2010-06-11 08:05:57 51°12.248 2°49.079 284.9 3 276 9.7
2010-06-11 08:06:03 51°12.249 2°49.071 284.6 3 280 9.6
2010-06-11 08:06:07 51°12.249 2°49.065 284 3.1 276 9.6
2010-06-11 08:06:12 51°12.249 2°49.059 283.7 3 279 9.9
2010-06-11 08:06:17 51°12.25 2°49.052 283.8 3.1 279 9.9
2010-06-11 08:06:23 51°12.251 2°49.044 283.6 3 276 9.8
2010-06-11 08:06:28 51°12.252 2°49.038 283.7 3 281 9.5
2010-06-11 08:06:32 51°12.252 2°49.032 283.3 3 275 9.7
2010-06-11 08:06:37 51°12.252 2°49.026 282.7 3 275 10
2010-06-11 08:06:42 51°12.252 2°49.019 283.2 3.1 276 10.1
2010-06-11 08:06:48 51°12.253 2°49.011 282.9 3.1 271 10.4
2010-06-11 08:06:52 51°12.254 2°49.005 282.7 3 277 10.1
2010-06-11 08:06:58 51°12.254 2°48.998 282.2 3 274 9.9
2010-06-11 08:07:03 51°12.254 2°48.991 281.8 3 275 9.8
2010-06-11 08:07:08 51°12.254 2°48.984 281.3 3.1 273 10.1
2010-06-11 08:07:12 51°12.255 2°48.979 281.5 3 274 10.1
2010-06-11 08:07:18 51°12.255 2°48.971 281.6 3.1 274 10.4
2010-06-11 08:07:23 51°12.256 2°48.964 281.7 3.1 276 10.3
2010-06-11 08:07:27 51°12.256 2°48.959 281.5 3.1 272 10.2
2010-06-11 08:07:32 51°12.256 2°48.952 281.3 3 275 9.9
2010-06-11 08:07:38 51°12.257 2°48.944 280.9 3 274 9.8
2010-06-11 08:07:43 51°12.257 2°48.937 280 3 272 10.2
2010-06-11 08:07:47 51°12.257 2°48.932 279.6 3.1 274 10.1
2010-06-11 08:07:52 51°12.257 2°48.925 279.6 3.1 273 10.3
2010-06-11 08:07:58 51°12.258 2°48.917 279.5 3.1 273 10.3
2010-06-11 08:08:03 51°12.258 2°48.91 279.5 3.1 276 10
2010-06-11 08:08:07 51°12.258 2°48.905 279.2 3.1 274 9.8
2010-06-11 08:08:12 51°12.258 2°48.898 279 3.2 274 10
2010-06-11 08:08:17 51°12.258 2°48.891 279.2 3.2 272 9.9
2010-06-11 08:08:23 51°12.258 2°48.882 279 3.2 273 10.4
2010-06-11 08:08:27 51°12.259 2°48.877 278.9 3.3 271 10.4
2010-06-11 08:08:32 51°12.259 2°48.87 278.8 3.2 272 10.5
2010-06-11 08:08:37 51°12.259 2°48.863 279 3.2 274 10.3
2010-06-11 08:08:43 51°12.26 2°48.854 279.2 3.2 275 10.3
2010-06-11 08:08:48 51°12.259 2°48.847 279.1 3.2 270 10.3
2010-06-11 08:08:52 51°12.26 2°48.842 279.2 3.2 274 10.5
2010-06-11 08:08:57 51°12.26 2°48.834 279.4 3.2 273 10.4
2010-06-11 08:09:02 51°12.26 2°48.827 279.1 3.3 274 10.4
2010-06-11 08:09:08 51°12.261 2°48.818 278.9 3.3 271 10.5
2010-06-11 08:09:12 51°12.261 2°48.813 279.1 3.2 273 10.5
2010-06-11 08:09:18 51°12.261 2°48.804 279.1 3.3 271 10.8
2010-06-11 08:09:23 51°12.261 2°48.797 279.1 3.3 272 10.6
2010-06-11 08:09:27 51°12.261 2°48.791 279 3.3 274 10.5
2010-06-11 08:09:32 51°12.262 2°48.784 278.8 3.2 272 10.3
2010-06-11 08:09:38 51°12.262 2°48.775 279 3.2 271 10.5
2010-06-11 08:09:43 51°12.262 2°48.768 279.1 3.2 275 10.5
2010-06-11 08:09:47 51°12.263 2°48.762 278.9 3.3 274 10.6
2010-06-11 08:09:52 51°12.263 2°48.755 279.3 3.3 274 10.7
2010-06-11 08:09:58 51°12.263 2°48.747 279.8 3.3 274 10.9
2010-06-11 08:10:03 51°12.264 2°48.74 280.5 3.2 277 10.7
2010-06-11 08:10:07 51°12.264 2°48.734 280.5 3.2 275 10.7
2010-06-11 08:10:12 51°12.265 2°48.727 281 3.2 277 10.7
2010-06-11 08:10:18 51°12.265 2°48.719 281.7 3.1 278 10.3
2010-06-11 08:10:23 51°12.266 2°48.712 281.6 3.1 275 10.6
2010-06-11 08:10:27 51°12.266 2°48.706 281.8 3.1 276 10.8
2010-06-11 08:10:32 51°12.266 2°48.7 282.3 3 277 11
2010-06-11 08:10:38 51°12.267 2°48.692 282.5 3 279 11
2010-06-11 08:10:43 51°12.267 2°48.685 283.1 2.9 277 11.1
2010-06-11 08:10:48 51°12.268 2°48.679 283.3 2.9 277 11.2
2010-06-11 08:10:52 51°12.269 2°48.673 283.3 3 278 11.2
2010-06-11 08:10:57 51°12.269 2°48.667 283.4 3 278 11.1
2010-06-11 08:11:03 51°12.27 2°48.659 283.2 3 275 11.1
2010-06-11 08:11:08 51°12.27 2°48.653 282.7 2.9 277 10.9
2010-06-11 08:11:12 51°12.271 2°48.648 282.7 2.9 274 11.2
2010-06-11 08:11:17 51°12.271 2°48.641 281.8 2.9 277 11.2
2010-06-11 08:11:22 51°12.271 2°48.635 281.5 2.8 272 11.2
2010-06-11 08:11:28 51°12.272 2°48.627 281.3 2.8 276 11.4
2010-06-11 08:11:32 51°12.272 2°48.622 280.7 2.8 276 11.1
2010-06-11 08:11:38 51°12.273 2°48.615 280.4 2.8 278 10.9
2010-06-11 08:11:43 51°12.273 2°48.609 280.5 2.8 275 11
2010-06-11 08:11:47 51°12.273 2°48.603 280.3 2.8 274 11.4
2010-06-11 08:11:52 51°12.274 2°48.597 280.6 2.8 276 11.3
2010-06-11 08:11:58 51°12.274 2°48.59 280.4 2.8 276 11.1
2010-06-11 08:12:03 51°12.275 2°48.583 280 2.9 275 11.4
2010-06-11 08:12:07 51°12.275 2°48.578 279.9 2.9 275 11.7
2010-06-11 08:12:12 51°12.276 2°48.572 280.2 2.9 276 11.3
2010-06-11 08:12:18 51°12.276 2°48.564 279.8 3 272 11.7
2010-06-11 08:12:23 51°12.276 2°48.557 279.5 3 274 11.4
2010-06-11 08:12:27 51°12.276 2°48.552 279.4 2.9 276 11
2010-06-11 08:12:32 51°12.277 2°48.545 278.6 3 275 11.4
2010-06-11 08:12:38 51°12.277 2°48.537 279 3.1 273 11.6
2010-06-11 08:12:43 51°12.278 2°48.531 279.5 3 277 11.5
2010-06-11 08:12:47 51°12.278 2°48.525 280.2 3 278 11.3
2010-06-11 08:12:53 51°12.279 2°48.518 280.1 3 278 11.5
2010-06-11 08:12:58 51°12.279 2°48.511 280.5 3 279 11.4
2010-06-11 08:13:03 51°12.28 2°48.505 280.8 3 277 11.4
2010-06-11 08:13:07 51°12.281 2°48.499 280.8 3.1 278 11.8
2010-06-11 08:13:13 51°12.281 2°48.491 281.1 3.1 279 11.9
2010-06-11 08:13:18 51°12.282 2°48.485 281.7 3 280 11.7
2010-06-11 08:13:22 51°12.282 2°48.479 281.9 3.1 282 11.6
2010-06-11 08:13:27 51°12.283 2°48.473 282.4 3.2 279 11.7
2010-06-11 08:13:33 51°12.284 2°48.465 283 3.1 280 11.8
2010-06-11 08:13:38 51°12.285 2°48.458 283 3 279 12
2010-06-11 08:13:42 51°12.286 2°48.453 283 3 283 11.9
2010-06-11 08:13:47 51°12.286 2°48.447 283.2 3.1 281 11.9
2010-06-11 08:13:53 51°12.287 2°48.439 283.2 3 281 11.9
2010-06-11 08:13:58 51°12.288 2°48.432 282.9 2.9 280 11.8
2010-06-11 08:14:02 51°12.289 2°48.427 282.4 3 281 11.8
2010-06-11 08:14:07 51°12.29 2°48.421 282.4 3 281 12
2010-06-11 08:14:13 51°12.29 2°48.413 282.2 2.9 280 12
2010-06-11 08:14:18 51°12.291 2°48.407 281.7 2.9 278 12.1
2010-06-11 08:14:22 51°12.291 2°48.401 281.4 2.9 279 12.1
2010-06-11 08:14:27 51°12.292 2°48.395 281.5 2.9 278 11.9
2010-06-11 08:14:32 51°12.292 2°48.388 281.2 3 278 12.1
2010-06-11 08:14:38 51°12.293 2°48.381 281 3 277 12.2
2010-06-11 08:14:42 51°12.294 2°48.375 281 3 281 12.2
2010-06-11 08:14:47 51°12.294 2°48.369 280.5 3 275 12.2
2010-06-11 08:14:52 51°12.295 2°48.362 280.3 3 277 12.4
2010-06-11 08:14:58 51°12.296 2°48.354 280.3 3 279 12.1
2010-06-11 08:15:03 51°12.296 2°48.348 280.2 3 278 12.2
2010-06-11 08:15:07 51°12.297 2°48.342 280.3 3 278 12.1
2010-06-11 08:15:12 51°12.297 2°48.336 279.9 3 276 12.2
2010-06-11 08:15:18 51°12.298 2°48.328 278.8 3 274 12.3
2010-06-11 08:15:23 51°12.298 2°48.321 277.3 3 275 12.4
2010-06-11 08:15:27 51°12.298 2°48.316 275.9 3 270 12.3
2010-06-11 08:15:32 51°12.298 2°48.309 274.4 3.1 270 12.4
2010-06-11 08:15:38 51°12.298 2°48.301 272.9 3.1 271 12.4
2010-06-11 08:15:42 51°12.298 2°48.296 271.7 3.1 269 12.4
2010-06-11 08:15:47 51°12.298 2°48.289 270.9 3.1 270 12.4
2010-06-11 08:15:52 51°12.298 2°48.282 270.1 3.1 267 12.2
2010-06-11 08:15:58 51°12.298 2°48.274 268.9 3 268 12.3
2010-06-11 08:16:03 51°12.297 2°48.268 267.7 3 262 12.5
2010-06-11 08:16:07 51°12.297 2°48.263 266.5 3 266 12.6
2010-06-11 08:16:13 51°12.296 2°48.255 265.5 3 264 12.5
2010-06-11 08:16:18 51°12.296 2°48.248 264.7 3 263 12.5
2010-06-11 08:16:22 51°12.295 2°48.243 264.5 3.1 259 12.7
2010-06-11 08:16:27 51°12.295 2°48.236 264.2 3.1 262 12.7
2010-06-11 08:16:32 51°12.294 2°48.229 263.6 3.1 261 12.5
2010-06-11 08:16:38 51°12.293 2°48.221 263 3.1 263 12.4
2010-06-11 08:16:42 51°12.293 2°48.216 262.5 3.1 262 12.5
2010-06-11 08:16:47 51°12.292 2°48.209 262.3 3.1 260 12.6
2010-06-11 08:16:52 51°12.291 2°48.203 261.6 3.1 257 12.7
2010-06-11 08:16:58 51°12.29 2°48.194 261.3 3.1 260 12.8
2010-06-11 08:17:02 51°12.289 2°48.189 261.4 3.1 259 12.9
2010-06-11 08:17:07 51°12.288 2°48.183 261.2 3.1 257 12.5
2010-06-11 08:17:12 51°12.288 2°48.176 260.7 3 257 12.4
2010-06-11 08:17:18 51°12.286 2°48.168 259.9 3 256 12.4
2010-06-11 08:17:23 51°12.285 2°48.162 259.8 3.1 257 12.4
2010-06-11 08:17:27 51°12.285 2°48.157 259.7 3 254 12.7
2010-06-11 08:17:32 51°12.284 2°48.15 259.8 3 256 12.8
2010-06-11 08:17:38 51°12.282 2°48.142 259.9 3 259 12.8
2010-06-11 08:17:43 51°12.282 2°48.135 260 3 257 12.8
2010-06-11 08:17:47 51°12.281 2°48.13 260.5 3 262 12.3